Wetterdaten der Wetterstation 41540 Dormagen

Letzte Wetterlage 30.03.2015 07:28
Wetterdiagramm
Tabellarische Darstellung
Datum Temperatur Windchill Feuchte Luftdruck Windrichtung Windstärke Niederschlag
30.03.2015 07:38 6,9 °C -2,2 °C 82 % 999,7 hPa 293 6.8 0 l/m²
30.03.2015 07:28 6,9 °C 0,4 °C 82 % 999,5 hPa 270 4.8 0 l/m²
30.03.2015 07:08 6,9 °C 1,0 °C 82 % 999,3 hPa 315 4.4 0 l/m²
30.03.2015 06:58 7,0 °C 2,9 °C 81 % 999,0 hPa 315 3.4 0 l/m²
30.03.2015 06:48 6,9 °C 1,0 °C 82 % 999,2 hPa 315 4.4 0 l/m²
30.03.2015 06:38 7,0 °C -0,9 °C 81 % 998,9 hPa 315 5.8 0 l/m²
30.03.2015 06:28 7,0 °C 2,3 °C 81 % 998,9 hPa 293 3.7 0 l/m²
30.03.2015 06:18 7,2 °C 2,6 °C 81 % 998,8 hPa 270 3.7 0 l/m²
30.03.2015 06:08 7,4 °C 0,5 °C 81 % 998,8 hPa 270 5.1 0 l/m²
30.03.2015 05:58 7,6 °C -2,3 °C 82 % 998,9 hPa 315 7.8 0 l/m²
30.03.2015 05:48 7,7 °C 2,0 °C 83 % 998,9 hPa 270 4.4 0 l/m²
30.03.2015 05:38 7,9 °C 1,2 °C 84 % 998,7 hPa 315 5.1 0 l/m²
30.03.2015 05:28 8,1 °C 3,6 °C 85 % 998,8 hPa 315 3.7 0,2 l/m²
30.03.2015 05:08 8,4 °C -2,3 °C 88 % 998,2 hPa 270 9.2 0,7 l/m²
30.03.2015 04:58 8,1 °C 1,9 °C 88 % 998,0 hPa 180 4.8 0,7 l/m²
30.03.2015 04:48 7,9 °C 4,6 °C 88 % 997,8 hPa 270 3.1 0,7 l/m²
30.03.2015 04:38 7,9 °C 7,9 °C 86 % 998,0 hPa 270 1.7 0,7 l/m²
30.03.2015 04:28 7,9 °C 3,4 °C 85 % 997,8 hPa 45 3.7 0,6 l/m²
30.03.2015 04:08 8,4 °C 2,2 °C 83 % 997,8 hPa 315 4.8 0,2 l/m²
30.03.2015 03:58 8,5 °C 6,1 °C 80 % 997,9 hPa 315 2.7 0 l/m²
30.03.2015 03:48 8,5 °C 8,5 °C 79 % 997,7 hPa 270 2.0 0 l/m²
30.03.2015 03:38 8,5 °C 6,1 °C 78 % 997,6 hPa 315 2.7 0 l/m²
30.03.2015 03:28 8,4 °C 6,0 °C 78 % 997,8 hPa 315 2.7 0 l/m²
30.03.2015 03:18 8,4 °C 6,7 °C 78 % 998,2 hPa 270 2.4 0 l/m²
30.03.2015 03:08 8,3 °C 5,9 °C 79 % 998,1 hPa 315 2.7 0 l/m²
Neue Wetterwarnung

Neue Niederschlagsmeldung
Neue Meldung
Regen Liveticker
    sehr starker Regen/Gewitter
    starker Regen/Gewitter
    mäßiger bis starker Regen
    mäßiger Regen
    leichter bis mäßiger Regen
    kein Regen